sensor_id;sensor_type;location;lat;lon;timestamp;temperature;humidity
16767;DHT22;8501;49.926;8.404;2022-11-25T00:01:23;6.00;99.90
16767;DHT22;8501;49.926;8.404;2022-11-25T00:03:49;6.00;99.90
16767;DHT22;8501;49.926;8.404;2022-11-25T00:06:21;6.00;99.90
16767;DHT22;8501;49.926;8.404;2022-11-25T00:08:53;6.00;99.90
16767;DHT22;8501;49.926;8.404;2022-11-25T00:11:18;5.90;99.90
16767;DHT22;8501;49.926;8.404;2022-11-25T00:13:45;5.90;99.90
16767;DHT22;8501;49.926;8.404;2022-11-25T00:16:14;5.80;99.90
16767;DHT22;8501;49.926;8.404;2022-11-25T00:18:43;5.80;99.90
16767;DHT22;8501;49.926;8.404;2022-11-25T00:21:11;5.80;99.90
16767;DHT22;8501;49.926;8.404;2022-11-25T00:23:38;5.90;99.90
16767;DHT22;8501;49.926;8.404;2022-11-25T00:26:14;6.00;99.90
16767;DHT22;8501;49.926;8.404;2022-11-25T00:28:42;6.00;99.90
16767;DHT22;8501;49.926;8.404;2022-11-25T00:31:16;6.00;99.90
16767;DHT22;8501;49.926;8.404;2022-11-25T00:33:42;6.00;99.90
16767;DHT22;8501;49.926;8.404;2022-11-25T00:36:20;5.90;99.90
16767;DHT22;8501;49.926;8.404;2022-11-25T00:38:46;5.80;99.90
16767;DHT22;8501;49.926;8.404;2022-11-25T00:41:12;5.70;99.90
16767;DHT22;8501;49.926;8.404;2022-11-25T00:43:57;5.70;99.90
16767;DHT22;8501;49.926;8.404;2022-11-25T00:46:41;5.70;99.90
16767;DHT22;8501;49.926;8.404;2022-11-25T00:49:07;5.70;99.90
16767;DHT22;8501;49.926;8.404;2022-11-25T00:51:32;5.70;99.90
16767;DHT22;8501;49.926;8.404;2022-11-25T00:53:58;5.80;99.90
16767;DHT22;8501;49.926;8.404;2022-11-25T00:56:23;5.80;99.90
16767;DHT22;8501;49.926;8.404;2022-11-25T00:58:49;5.80;99.90
16767;DHT22;8501;49.926;8.404;2022-11-25T01:01:17;5.90;99.90
16767;DHT22;8501;49.926;8.404;2022-11-25T01:03:42;5.90;99.90
16767;DHT22;8501;49.926;8.404;2022-11-25T01:06:09;6.00;99.90
16767;DHT22;8501;49.926;8.404;2022-11-25T01:08:36;6.00;99.90
16767;DHT22;8501;49.926;8.404;2022-11-25T01:11:05;6.00;99.90
16767;DHT22;8501;49.926;8.404;2022-11-25T01:13:31;5.90;99.90
16767;DHT22;8501;49.926;8.404;2022-11-25T01:16:03;5.80;99.90
16767;DHT22;8501;49.926;8.404;2022-11-25T01:18:30;5.80;99.90
16767;DHT22;8501;49.926;8.404;2022-11-25T01:21:07;5.70;99.90
16767;DHT22;8501;49.926;8.404;2022-11-25T01:23:34;5.70;99.90
16767;DHT22;8501;49.926;8.404;2022-11-25T01:26:04;5.70;99.90
16767;DHT22;8501;49.926;8.404;2022-11-25T01:28:31;5.70;99.90
16767;DHT22;8501;49.926;8.404;2022-11-25T01:33:30;5.70;99.90
16767;DHT22;8501;49.926;8.404;2022-11-25T01:36:04;5.70;99.90
16767;DHT22;8501;49.926;8.404;2022-11-25T01:38:30;5.60;99.90
16767;DHT22;8501;49.926;8.404;2022-11-25T01:40:57;5.60;99.90
16767;DHT22;8501;49.926;8.404;2022-11-25T01:43:23;5.60;99.90
16767;DHT22;8501;49.926;8.404;2022-11-25T01:45:48;5.70;99.90
16767;DHT22;8501;49.926;8.404;2022-11-25T01:48:19;5.60;99.90
16767;DHT22;8501;49.926;8.404;2022-11-25T01:50:47;5.70;99.90
16767;DHT22;8501;49.926;8.404;2022-11-25T01:53:15;5.70;99.90
16767;DHT22;8501;49.926;8.404;2022-11-25T01:55:48;5.70;99.90
16767;DHT22;8501;49.926;8.404;2022-11-25T01:58:21;5.70;99.90
16767;DHT22;8501;49.926;8.404;2022-11-25T02:00:50;5.60;99.90
16767;DHT22;8501;49.926;8.404;2022-11-25T02:03:30;5.50;99.90
16767;DHT22;8501;49.926;8.404;2022-11-25T02:06:09;5.50;99.90
16767;DHT22;8501;49.926;8.404;2022-11-25T02:08:37;5.50;99.90
16767;DHT22;8501;49.926;8.404;2022-11-25T02:11:04;5.50;99.90
16767;DHT22;8501;49.926;8.404;2022-11-25T02:13:31;5.50;99.90
16767;DHT22;8501;49.926;8.404;2022-11-25T02:15:57;5.60;99.90
16767;DHT22;8501;49.926;8.404;2022-11-25T02:18:22;5.60;99.90
16767;DHT22;8501;49.926;8.404;2022-11-25T02:20:49;5.70;99.90
16767;DHT22;8501;49.926;8.404;2022-11-25T02:23:41;5.70;99.90
16767;DHT22;8501;49.926;8.404;2022-11-25T02:26:09;5.70;99.90
16767;DHT22;8501;49.926;8.404;2022-11-25T02:28:34;5.70;99.90
16767;DHT22;8501;49.926;8.404;2022-11-25T02:31:00;5.80;99.90
16767;DHT22;8501;49.926;8.404;2022-11-25T02:33:26;5.80;99.90
16767;DHT22;8501;49.926;8.404;2022-11-25T02:35:55;5.80;99.90
16767;DHT22;8501;49.926;8.404;2022-11-25T02:38:43;5.80;99.90
16767;DHT22;8501;49.926;8.404;2022-11-25T02:43:38;5.80;99.90
16767;DHT22;8501;49.926;8.404;2022-11-25T02:46:07;5.80;99.90
16767;DHT22;8501;49.926;8.404;2022-11-25T02:48:35;5.70;99.90
16767;DHT22;8501;49.926;8.404;2022-11-25T02:51:02;5.80;99.90
16767;DHT22;8501;49.926;8.404;2022-11-25T02:53:27;5.80;99.90
16767;DHT22;8501;49.926;8.404;2022-11-25T02:55:53;5.80;99.90
16767;DHT22;8501;49.926;8.404;2022-11-25T02:58:19;5.80;99.90
16767;DHT22;8501;49.926;8.404;2022-11-25T03:00:45;5.80;99.90
16767;DHT22;8501;49.926;8.404;2022-11-25T03:03:11;5.80;99.90
16767;DHT22;8501;49.926;8.404;2022-11-25T03:05:36;5.70;99.90
16767;DHT22;8501;49.926;8.404;2022-11-25T03:08:03;5.70;99.90
16767;DHT22;8501;49.926;8.404;2022-11-25T03:10:29;5.70;99.90
16767;DHT22;8501;49.926;8.404;2022-11-25T03:12:54;5.80;99.90
16767;DHT22;8501;49.926;8.404;2022-11-25T03:15:20;5.80;99.90
16767;DHT22;8501;49.926;8.404;2022-11-25T03:17:46;5.80;99.90
16767;DHT22;8501;49.926;8.404;2022-11-25T03:20:12;5.80;99.90
16767;DHT22;8501;49.926;8.404;2022-11-25T03:22:42;5.80;99.90
16767;DHT22;8501;49.926;8.404;2022-11-25T03:25:10;5.70;99.90
16767;DHT22;8501;49.926;8.404;2022-11-25T03:27:36;5.80;99.90
16767;DHT22;8501;49.926;8.404;2022-11-25T03:30:04;5.70;99.90
16767;DHT22;8501;49.926;8.404;2022-11-25T03:32:30;5.70;99.90
16767;DHT22;8501;49.926;8.404;2022-11-25T03:34:56;5.70;99.90
16767;DHT22;8501;49.926;8.404;2022-11-25T03:37:22;5.70;99.90
16767;DHT22;8501;49.926;8.404;2022-11-25T03:39:47;5.70;99.90
16767;DHT22;8501;49.926;8.404;2022-11-25T03:42:13;5.70;99.90
16767;DHT22;8501;49.926;8.404;2022-11-25T03:44:38;5.70;99.90
16767;DHT22;8501;49.926;8.404;2022-11-25T03:47:05;5.70;99.90
16767;DHT22;8501;49.926;8.404;2022-11-25T03:49:31;5.70;99.90
16767;DHT22;8501;49.926;8.404;2022-11-25T03:51:57;5.70;99.90
16767;DHT22;8501;49.926;8.404;2022-11-25T03:54:23;5.70;99.90
16767;DHT22;8501;49.926;8.404;2022-11-25T03:56:48;5.70;99.90
16767;DHT22;8501;49.926;8.404;2022-11-25T03:59:14;5.70;99.90
16767;DHT22;8501;49.926;8.404;2022-11-25T04:01:40;5.70;99.90
16767;DHT22;8501;49.926;8.404;2022-11-25T04:04:05;5.60;99.90
16767;DHT22;8501;49.926;8.404;2022-11-25T04:06:31;5.60;99.90
16767;DHT22;8501;49.926;8.404;2022-11-25T04:08:57;5.60;99.90
16767;DHT22;8501;49.926;8.404;2022-11-25T04:11:22;5.60;99.90
16767;DHT22;8501;49.926;8.404;2022-11-25T04:14:08;5.60;99.90
16767;DHT22;8501;49.926;8.404;2022-11-25T04:16:34;5.60;99.90
16767;DHT22;8501;49.926;8.404;2022-11-25T04:18:59;5.60;99.90
16767;DHT22;8501;49.926;8.404;2022-11-25T04:21:25;5.50;99.90
16767;DHT22;8501;49.926;8.404;2022-11-25T04:23:50;5.60;99.90
16767;DHT22;8501;49.926;8.404;2022-11-25T04:26:16;5.60;99.90
16767;DHT22;8501;49.926;8.404;2022-11-25T04:28:41;5.70;99.90
16767;DHT22;8501;49.926;8.404;2022-11-25T04:31:08;5.60;99.90
16767;DHT22;8501;49.926;8.404;2022-11-25T04:33:34;5.60;99.90
16767;DHT22;8501;49.926;8.404;2022-11-25T04:35:59;5.60;99.90
16767;DHT22;8501;49.926;8.404;2022-11-25T04:38:25;5.60;99.90
16767;DHT22;8501;49.926;8.404;2022-11-25T04:40:50;5.60;99.90
16767;DHT22;8501;49.926;8.404;2022-11-25T04:43:16;5.60;99.90
16767;DHT22;8501;49.926;8.404;2022-11-25T04:45:41;5.60;99.90
16767;DHT22;8501;49.926;8.404;2022-11-25T04:48:07;5.60;99.90
16767;DHT22;8501;49.926;8.404;2022-11-25T04:50:32;5.70;99.90
16767;DHT22;8501;49.926;8.404;2022-11-25T04:52:58;5.60;99.90
16767;DHT22;8501;49.926;8.404;2022-11-25T04:55:23;5.60;99.90
16767;DHT22;8501;49.926;8.404;2022-11-25T04:57:49;5.60;99.90
16767;DHT22;8501;49.926;8.404;2022-11-25T05:00:15;5.70;99.90
16767;DHT22;8501;49.926;8.404;2022-11-25T05:02:40;5.70;99.90
16767;DHT22;8501;49.926;8.404;2022-11-25T05:05:06;5.70;99.90
16767;DHT22;8501;49.926;8.404;2022-11-25T05:07:32;5.60;99.90
16767;DHT22;8501;49.926;8.404;2022-11-25T05:09:58;5.60;99.90
16767;DHT22;8501;49.926;8.404;2022-11-25T05:12:25;5.70;99.90
16767;DHT22;8501;49.926;8.404;2022-11-25T05:14:51;5.70;99.90
16767;DHT22;8501;49.926;8.404;2022-11-25T05:17:22;5.70;99.90
16767;DHT22;8501;49.926;8.404;2022-11-25T05:19:48;5.70;99.90
16767;DHT22;8501;49.926;8.404;2022-11-25T05:22:17;5.80;99.90
16767;DHT22;8501;49.926;8.404;2022-11-25T05:24:43;5.70;99.90
16767;DHT22;8501;49.926;8.404;2022-11-25T05:27:09;5.70;99.90
16767;DHT22;8501;49.926;8.404;2022-11-25T05:29:34;5.70;99.90
16767;DHT22;8501;49.926;8.404;2022-11-25T05:32:00;5.70;99.90
16767;DHT22;8501;49.926;8.404;2022-11-25T05:34:26;5.60;99.90
16767;DHT22;8501;49.926;8.404;2022-11-25T05:36:51;5.60;99.90
16767;DHT22;8501;49.926;8.404;2022-11-25T05:39:17;5.60;99.90
16767;DHT22;8501;49.926;8.404;2022-11-25T05:41:43;5.70;99.90
16767;DHT22;8501;49.926;8.404;2022-11-25T05:44:08;5.70;99.90
16767;DHT22;8501;49.926;8.404;2022-11-25T05:46:34;5.70;99.90
16767;DHT22;8501;49.926;8.404;2022-11-25T05:49:00;5.60;99.90
16767;DHT22;8501;49.926;8.404;2022-11-25T05:51:26;5.70;99.90
16767;DHT22;8501;49.926;8.404;2022-11-25T05:53:53;5.70;99.90
16767;DHT22;8501;49.926;8.404;2022-11-25T05:56:19;5.70;99.90
16767;DHT22;8501;49.926;8.404;2022-11-25T05:58:44;5.70;99.90
16767;DHT22;8501;49.926;8.404;2022-11-25T06:01:12;5.70;99.90
16767;DHT22;8501;49.926;8.404;2022-11-25T06:03:37;5.80;99.90
16767;DHT22;8501;49.926;8.404;2022-11-25T06:06:04;5.80;99.90
16767;DHT22;8501;49.926;8.404;2022-11-25T06:08:32;5.80;99.90
16767;DHT22;8501;49.926;8.404;2022-11-25T06:10:57;5.80;99.90
16767;DHT22;8501;49.926;8.404;2022-11-25T06:13:23;5.80;99.90
16767;DHT22;8501;49.926;8.404;2022-11-25T06:15:49;5.80;99.90
16767;DHT22;8501;49.926;8.404;2022-11-25T06:18:16;5.80;99.90
16767;DHT22;8501;49.926;8.404;2022-11-25T06:20:42;5.80;99.90
16767;DHT22;8501;49.926;8.404;2022-11-25T06:23:08;5.80;99.90
16767;DHT22;8501;49.926;8.404;2022-11-25T06:25:34;5.90;99.90
16767;DHT22;8501;49.926;8.404;2022-11-25T06:28:01;5.90;99.90
16767;DHT22;8501;49.926;8.404;2022-11-25T06:30:28;5.90;99.90
16767;DHT22;8501;49.926;8.404;2022-11-25T06:32:53;5.80;99.90
16767;DHT22;8501;49.926;8.404;2022-11-25T06:35:19;5.80;99.90
16767;DHT22;8501;49.926;8.404;2022-11-25T06:37:45;5.90;99.90
16767;DHT22;8501;49.926;8.404;2022-11-25T06:40:10;5.90;99.90
16767;DHT22;8501;49.926;8.404;2022-11-25T06:42:39;5.90;99.90
16767;DHT22;8501;49.926;8.404;2022-11-25T06:45:07;5.90;99.90
16767;DHT22;8501;49.926;8.404;2022-11-25T06:47:33;5.90;99.90
16767;DHT22;8501;49.926;8.404;2022-11-25T06:49:59;5.90;99.90
16767;DHT22;8501;49.926;8.404;2022-11-25T06:52:24;5.90;99.90
16767;DHT22;8501;49.926;8.404;2022-11-25T06:54:50;5.90;99.90
16767;DHT22;8501;49.926;8.404;2022-11-25T06:57:17;5.90;99.90
16767;DHT22;8501;49.926;8.404;2022-11-25T06:59:43;5.90;99.90
16767;DHT22;8501;49.926;8.404;2022-11-25T07:02:11;5.90;99.90
16767;DHT22;8501;49.926;8.404;2022-11-25T07:04:37;5.90;99.90
16767;DHT22;8501;49.926;8.404;2022-11-25T07:07:03;5.90;99.90
16767;DHT22;8501;49.926;8.404;2022-11-25T07:09:29;5.90;99.90
16767;DHT22;8501;49.926;8.404;2022-11-25T07:11:54;5.90;99.90
16767;DHT22;8501;49.926;8.404;2022-11-25T07:14:20;6.00;99.90
16767;DHT22;8501;49.926;8.404;2022-11-25T07:16:46;6.00;99.90
16767;DHT22;8501;49.926;8.404;2022-11-25T07:19:14;5.90;99.90
16767;DHT22;8501;49.926;8.404;2022-11-25T07:21:40;6.00;99.90
16767;DHT22;8501;49.926;8.404;2022-11-25T07:24:06;6.00;99.90
16767;DHT22;8501;49.926;8.404;2022-11-25T07:26:34;6.00;99.90
16767;DHT22;8501;49.926;8.404;2022-11-25T07:29:02;5.90;99.90
16767;DHT22;8501;49.926;8.404;2022-11-25T07:31:32;6.00;99.90
16767;DHT22;8501;49.926;8.404;2022-11-25T07:34:00;6.00;99.90
16767;DHT22;8501;49.926;8.404;2022-11-25T07:36:27;6.00;99.90
16767;DHT22;8501;49.926;8.404;2022-11-25T07:38:53;5.90;99.90
16767;DHT22;8501;49.926;8.404;2022-11-25T07:41:20;6.00;99.90
16767;DHT22;8501;49.926;8.404;2022-11-25T07:43:52;6.00;99.90
16767;DHT22;8501;49.926;8.404;2022-11-25T07:46:24;6.00;99.90
16767;DHT22;8501;49.926;8.404;2022-11-25T07:48:52;6.00;99.90
16767;DHT22;8501;49.926;8.404;2022-11-25T07:51:21;6.00;99.90
16767;DHT22;8501;49.926;8.404;2022-11-25T07:53:48;6.00;99.90
16767;DHT22;8501;49.926;8.404;2022-11-25T07:56:14;6.00;99.90
16767;DHT22;8501;49.926;8.404;2022-11-25T07:58:40;6.10;99.90
16767;DHT22;8501;49.926;8.404;2022-11-25T08:01:08;6.10;99.90
16767;DHT22;8501;49.926;8.404;2022-11-25T08:03:35;6.20;99.90
16767;DHT22;8501;49.926;8.404;2022-11-25T08:06:03;6.20;99.90
16767;DHT22;8501;49.926;8.404;2022-11-25T08:08:29;6.20;99.90
16767;DHT22;8501;49.926;8.404;2022-11-25T08:10:55;6.20;99.90
16767;DHT22;8501;49.926;8.404;2022-11-25T08:13:21;6.20;99.90
16767;DHT22;8501;49.926;8.404;2022-11-25T08:15:47;6.30;99.90
16767;DHT22;8501;49.926;8.404;2022-11-25T08:18:12;6.30;99.90
16767;DHT22;8501;49.926;8.404;2022-11-25T08:20:38;6.30;99.90
16767;DHT22;8501;49.926;8.404;2022-11-25T08:23:03;6.30;99.90
16767;DHT22;8501;49.926;8.404;2022-11-25T08:25:29;6.30;99.90
16767;DHT22;8501;49.926;8.404;2022-11-25T08:27:58;6.30;99.90
16767;DHT22;8501;49.926;8.404;2022-11-25T08:30:23;6.40;99.90
16767;DHT22;8501;49.926;8.404;2022-11-25T08:32:50;6.40;99.90
16767;DHT22;8501;49.926;8.404;2022-11-25T08:35:16;6.30;99.90
16767;DHT22;8501;49.926;8.404;2022-11-25T08:37:42;6.40;99.90
16767;DHT22;8501;49.926;8.404;2022-11-25T08:40:08;6.40;99.90
16767;DHT22;8501;49.926;8.404;2022-11-25T08:42:35;6.40;99.90
16767;DHT22;8501;49.926;8.404;2022-11-25T08:45:00;6.50;99.90
16767;DHT22;8501;49.926;8.404;2022-11-25T08:47:26;6.50;99.90
16767;DHT22;8501;49.926;8.404;2022-11-25T08:49:52;6.50;99.90
16767;DHT22;8501;49.926;8.404;2022-11-25T08:52:19;6.50;99.90
16767;DHT22;8501;49.926;8.404;2022-11-25T08:54:45;6.50;99.90
16767;DHT22;8501;49.926;8.404;2022-11-25T08:57:11;6.50;99.90
16767;DHT22;8501;49.926;8.404;2022-11-25T08:59:36;6.60;99.90
16767;DHT22;8501;49.926;8.404;2022-11-25T09:02:03;6.50;99.90
16767;DHT22;8501;49.926;8.404;2022-11-25T09:04:29;6.60;99.90
16767;DHT22;8501;49.926;8.404;2022-11-25T09:06:55;6.60;99.90
16767;DHT22;8501;49.926;8.404;2022-11-25T09:09:20;6.60;99.90
16767;DHT22;8501;49.926;8.404;2022-11-25T09:11:46;6.60;99.90
16767;DHT22;8501;49.926;8.404;2022-11-25T09:14:12;6.60;99.90
16767;DHT22;8501;49.926;8.404;2022-11-25T09:16:37;6.70;99.90
16767;DHT22;8501;49.926;8.404;2022-11-25T09:19:03;6.70;99.90
16767;DHT22;8501;49.926;8.404;2022-11-25T09:21:29;6.70;99.90
16767;DHT22;8501;49.926;8.404;2022-11-25T09:23:54;6.70;99.90
16767;DHT22;8501;49.926;8.404;2022-11-25T09:26:23;6.80;99.90
16767;DHT22;8501;49.926;8.404;2022-11-25T09:28:48;6.80;99.90
16767;DHT22;8501;49.926;8.404;2022-11-25T09:31:14;6.80;99.90
16767;DHT22;8501;49.926;8.404;2022-11-25T09:33:40;6.80;99.90
16767;DHT22;8501;49.926;8.404;2022-11-25T09:36:06;6.80;99.90
16767;DHT22;8501;49.926;8.404;2022-11-25T09:38:32;6.90;99.90
16767;DHT22;8501;49.926;8.404;2022-11-25T09:41:04;6.90;99.90
16767;DHT22;8501;49.926;8.404;2022-11-25T09:43:41;6.90;99.90
16767;DHT22;8501;49.926;8.404;2022-11-25T09:49:18;6.90;99.90
16767;DHT22;8501;49.926;8.404;2022-11-25T09:52:13;7.00;99.90
16767;DHT22;8501;49.926;8.404;2022-11-25T09:55:06;7.00;99.90
16767;DHT22;8501;49.926;8.404;2022-11-25T09:58:05;7.00;99.90
16767;DHT22;8501;49.926;8.404;2022-11-25T10:00:43;7.00;99.90
16767;DHT22;8501;49.926;8.404;2022-11-25T10:03:38;7.00;99.90
16767;DHT22;8501;49.926;8.404;2022-11-25T10:08:57;7.10;99.90
16767;DHT22;8501;49.926;8.404;2022-11-25T10:17:05;7.10;99.90
16767;DHT22;8501;49.926;8.404;2022-11-25T10:22:27;7.20;99.90
16767;DHT22;8501;49.926;8.404;2022-11-25T10:24:56;7.20;99.90
16767;DHT22;8501;49.926;8.404;2022-11-25T10:27:37;7.20;99.90
16767;DHT22;8501;49.926;8.404;2022-11-25T10:30:41;7.30;99.90
16767;DHT22;8501;49.926;8.404;2022-11-25T10:33:32;7.30;99.90
16767;DHT22;8501;49.926;8.404;2022-11-25T10:36:09;7.30;99.90
16767;DHT22;8501;49.926;8.404;2022-11-25T10:41:07;7.50;99.90
16767;DHT22;8501;49.926;8.404;2022-11-25T10:43:36;7.60;99.90
16767;DHT22;8501;49.926;8.404;2022-11-25T10:51:37;7.60;99.90
16767;DHT22;8501;49.926;8.404;2022-11-25T10:54:21;7.60;99.90
16767;DHT22;8501;49.926;8.404;2022-11-25T10:56:50;7.70;99.90
16767;DHT22;8501;49.926;8.404;2022-11-25T10:59:28;7.70;99.90
16767;DHT22;8501;49.926;8.404;2022-11-25T11:04:57;7.80;99.90
16767;DHT22;8501;49.926;8.404;2022-11-25T11:07:25;7.90;99.90
16767;DHT22;8501;49.926;8.404;2022-11-25T11:09:50;7.90;99.90
16767;DHT22;8501;49.926;8.404;2022-11-25T11:12:24;7.90;99.90
16767;DHT22;8501;49.926;8.404;2022-11-25T11:14:51;7.90;99.90
16767;DHT22;8501;49.926;8.404;2022-11-25T11:17:29;8.00;99.90
16767;DHT22;8501;49.926;8.404;2022-11-25T11:20:13;8.00;99.90
16767;DHT22;8501;49.926;8.404;2022-11-25T11:22:53;8.00;99.90
16767;DHT22;8501;49.926;8.404;2022-11-25T11:27:46;8.10;99.90
16767;DHT22;8501;49.926;8.404;2022-11-25T11:30:17;8.10;99.90
16767;DHT22;8501;49.926;8.404;2022-11-25T11:35:45;8.10;99.90
16767;DHT22;8501;49.926;8.404;2022-11-25T11:38:52;8.20;99.90
16767;DHT22;8501;49.926;8.404;2022-11-25T11:44:08;8.20;99.90
16767;DHT22;8501;49.926;8.404;2022-11-25T11:47:03;8.30;99.90
16767;DHT22;8501;49.926;8.404;2022-11-25T11:55:11;8.50;99.90
16767;DHT22;8501;49.926;8.404;2022-11-25T11:58:15;8.60;99.90
16767;DHT22;8501;49.926;8.404;2022-11-25T12:03:42;8.70;99.90
16767;DHT22;8501;49.926;8.404;2022-11-25T12:06:09;8.70;99.90
16767;DHT22;8501;49.926;8.404;2022-11-25T12:08:46;8.70;99.90
16767;DHT22;8501;49.926;8.404;2022-11-25T12:11:20;8.80;99.90
16767;DHT22;8501;49.926;8.404;2022-11-25T12:19:24;8.90;99.90
16767;DHT22;8501;49.926;8.404;2022-11-25T12:22:06;8.90;99.90
16767;DHT22;8501;49.926;8.404;2022-11-25T12:24:41;8.80;99.90
16767;DHT22;8501;49.926;8.404;2022-11-25T12:27:34;8.80;99.90
16767;DHT22;8501;49.926;8.404;2022-11-25T12:30:21;8.90;99.90
16767;DHT22;8501;49.926;8.404;2022-11-25T12:33:05;8.80;99.90
16767;DHT22;8501;49.926;8.404;2022-11-25T12:41:44;8.90;99.90
16767;DHT22;8501;49.926;8.404;2022-11-25T12:44:01;8.90;99.90
16767;DHT22;8501;49.926;8.404;2022-11-25T12:46:42;8.90;99.90
16767;DHT22;8501;49.926;8.404;2022-11-25T12:49:18;8.90;99.90
16767;DHT22;8501;49.926;8.404;2022-11-25T13:01:15;9.10;99.90
16767;DHT22;8501;49.926;8.404;2022-11-25T13:16:57;9.20;99.90
16767;DHT22;8501;49.926;8.404;2022-11-25T13:19:24;9.20;99.90
16767;DHT22;8501;49.926;8.404;2022-11-25T13:24:48;9.40;99.90
16767;DHT22;8501;49.926;8.404;2022-11-25T13:38:56;9.50;99.90
16767;DHT22;8501;49.926;8.404;2022-11-25T13:41:39;9.50;99.90
16767;DHT22;8501;49.926;8.404;2022-11-25T13:44:21;9.60;99.90
16767;DHT22;8501;49.926;8.404;2022-11-25T13:46:50;9.60;99.90
16767;DHT22;8501;49.926;8.404;2022-11-25T13:51:53;9.60;99.90
16767;DHT22;8501;49.926;8.404;2022-11-25T13:54:23;9.60;99.90
16767;DHT22;8501;49.926;8.404;2022-11-25T13:59:51;9.60;99.90
16767;DHT22;8501;49.926;8.404;2022-11-25T14:19:19;9.60;99.90
16767;DHT22;8501;49.926;8.404;2022-11-25T14:24:30;9.60;99.90
16767;DHT22;8501;49.926;8.404;2022-11-25T14:26:59;9.70;99.90
16767;DHT22;8501;49.926;8.404;2022-11-25T14:32:20;9.70;99.90
16767;DHT22;8501;49.926;8.404;2022-11-25T14:34:52;9.70;99.90
16767;DHT22;8501;49.926;8.404;2022-11-25T14:37:27;9.70;99.90
16767;DHT22;8501;49.926;8.404;2022-11-25T14:40:09;9.70;99.90
16767;DHT22;8501;49.926;8.404;2022-11-25T14:42:42;9.70;99.90
16767;DHT22;8501;49.926;8.404;2022-11-25T14:45:30;9.70;99.90
16767;DHT22;8501;49.926;8.404;2022-11-25T14:47:57;9.70;99.90
16767;DHT22;8501;49.926;8.404;2022-11-25T14:50:36;9.60;99.90
16767;DHT22;8501;49.926;8.404;2022-11-25T14:53:10;9.60;99.90
16767;DHT22;8501;49.926;8.404;2022-11-25T14:55:36;9.70;99.90
16767;DHT22;8501;49.926;8.404;2022-11-25T14:58:02;9.70;99.90
16767;DHT22;8501;49.926;8.404;2022-11-25T15:00:28;9.70;99.90
16767;DHT22;8501;49.926;8.404;2022-11-25T15:03:02;9.60;99.90
16767;DHT22;8501;49.926;8.404;2022-11-25T15:05:37;9.60;99.90
16767;DHT22;8501;49.926;8.404;2022-11-25T15:08:14;9.60;99.90
16767;DHT22;8501;49.926;8.404;2022-11-25T15:10:55;9.50;99.90
16767;DHT22;8501;49.926;8.404;2022-11-25T15:13:37;9.40;99.90
16767;DHT22;8501;49.926;8.404;2022-11-25T15:16:11;9.40;99.90
16767;DHT22;8501;49.926;8.404;2022-11-25T15:18:38;9.40;99.90
16767;DHT22;8501;49.926;8.404;2022-11-25T15:21:12;9.40;99.90
16767;DHT22;8501;49.926;8.404;2022-11-25T15:23:39;9.40;99.90
16767;DHT22;8501;49.926;8.404;2022-11-25T15:26:21;9.30;99.90
16767;DHT22;8501;49.926;8.404;2022-11-25T15:28:53;9.30;99.90
16767;DHT22;8501;49.926;8.404;2022-11-25T15:31:20;9.30;99.90
16767;DHT22;8501;49.926;8.404;2022-11-25T15:33:48;9.30;99.90
16767;DHT22;8501;49.926;8.404;2022-11-25T15:36:14;9.20;99.90
16767;DHT22;8501;49.926;8.404;2022-11-25T15:38:44;9.20;99.90
16767;DHT22;8501;49.926;8.404;2022-11-25T15:41:26;9.20;99.90
16767;DHT22;8501;49.926;8.404;2022-11-25T15:43:55;9.20;99.90
16767;DHT22;8501;49.926;8.404;2022-11-25T15:46:24;9.20;99.90
16767;DHT22;8501;49.926;8.404;2022-11-25T15:48:51;9.20;99.90
16767;DHT22;8501;49.926;8.404;2022-11-25T15:51:31;9.20;99.90
16767;DHT22;8501;49.926;8.404;2022-11-25T15:54:26;9.10;99.90
16767;DHT22;8501;49.926;8.404;2022-11-25T15:56:53;9.10;99.90
16767;DHT22;8501;49.926;8.404;2022-11-25T15:59:40;9.10;99.90
16767;DHT22;8501;49.926;8.404;2022-11-25T16:02:32;9.00;99.90
16767;DHT22;8501;49.926;8.404;2022-11-25T16:10:20;9.00;99.90
16767;DHT22;8501;49.926;8.404;2022-11-25T16:15:46;9.00;99.90
16767;DHT22;8501;49.926;8.404;2022-11-25T16:18:15;9.00;99.90
16767;DHT22;8501;49.926;8.404;2022-11-25T16:20:53;9.00;99.90
16767;DHT22;8501;49.926;8.404;2022-11-25T16:23:21;9.00;99.90
16767;DHT22;8501;49.926;8.404;2022-11-25T16:25:55;9.00;99.90
16767;DHT22;8501;49.926;8.404;2022-11-25T16:28:22;8.90;99.90
16767;DHT22;8501;49.926;8.404;2022-11-25T16:30:49;8.90;99.90
16767;DHT22;8501;49.926;8.404;2022-11-25T16:33:16;8.90;99.90
16767;DHT22;8501;49.926;8.404;2022-11-25T16:35:41;8.90;99.90
16767;DHT22;8501;49.926;8.404;2022-11-25T16:38:09;8.90;99.90
16767;DHT22;8501;49.926;8.404;2022-11-25T16:40:36;8.90;99.90
16767;DHT22;8501;49.926;8.404;2022-11-25T16:43:03;8.90;99.90
16767;DHT22;8501;49.926;8.404;2022-11-25T16:45:30;8.90;99.90
16767;DHT22;8501;49.926;8.404;2022-11-25T16:47:56;8.80;99.90
16767;DHT22;8501;49.926;8.404;2022-11-25T16:50:22;8.80;99.90
16767;DHT22;8501;49.926;8.404;2022-11-25T16:52:47;8.80;99.90
16767;DHT22;8501;49.926;8.404;2022-11-25T16:55:14;8.80;99.90
16767;DHT22;8501;49.926;8.404;2022-11-25T16:57:41;8.80;99.90
16767;DHT22;8501;49.926;8.404;2022-11-25T17:00:12;8.70;99.90
16767;DHT22;8501;49.926;8.404;2022-11-25T17:02:38;8.70;99.90
16767;DHT22;8501;49.926;8.404;2022-11-25T17:05:30;8.70;99.90
16767;DHT22;8501;49.926;8.404;2022-11-25T17:07:56;8.70;99.90
16767;DHT22;8501;49.926;8.404;2022-11-25T17:10:21;8.70;99.90
16767;DHT22;8501;49.926;8.404;2022-11-25T17:12:47;8.70;99.90
16767;DHT22;8501;49.926;8.404;2022-11-25T17:15:19;8.70;99.90
16767;DHT22;8501;49.926;8.404;2022-11-25T17:17:46;8.70;99.90
16767;DHT22;8501;49.926;8.404;2022-11-25T17:20:15;8.70;99.90
16767;DHT22;8501;49.926;8.404;2022-11-25T17:22:41;8.70;99.90
16767;DHT22;8501;49.926;8.404;2022-11-25T17:25:08;8.70;99.90
16767;DHT22;8501;49.926;8.404;2022-11-25T17:27:35;8.70;99.90
16767;DHT22;8501;49.926;8.404;2022-11-25T17:30:03;8.60;99.90
16767;DHT22;8501;49.926;8.404;2022-11-25T17:32:31;8.70;99.90
16767;DHT22;8501;49.926;8.404;2022-11-25T17:34:57;8.70;99.90
16767;DHT22;8501;49.926;8.404;2022-11-25T17:37:23;8.60;99.90
16767;DHT22;8501;49.926;8.404;2022-11-25T17:39:52;8.60;99.90
16767;DHT22;8501;49.926;8.404;2022-11-25T17:42:29;8.60;99.90
16767;DHT22;8501;49.926;8.404;2022-11-25T17:44:55;8.60;99.90
16767;DHT22;8501;49.926;8.404;2022-11-25T17:47:21;8.60;99.90
16767;DHT22;8501;49.926;8.404;2022-11-25T17:49:46;8.60;99.90
16767;DHT22;8501;49.926;8.404;2022-11-25T17:52:13;8.60;99.90
16767;DHT22;8501;49.926;8.404;2022-11-25T17:54:39;8.60;99.90
16767;DHT22;8501;49.926;8.404;2022-11-25T17:57:06;8.60;99.90
16767;DHT22;8501;49.926;8.404;2022-11-25T17:59:35;8.60;99.90
16767;DHT22;8501;49.926;8.404;2022-11-25T18:02:01;8.60;99.90
16767;DHT22;8501;49.926;8.404;2022-11-25T18:04:31;8.60;99.90
16767;DHT22;8501;49.926;8.404;2022-11-25T18:07:00;8.60;99.90
16767;DHT22;8501;49.926;8.404;2022-11-25T18:09:25;8.60;99.90
16767;DHT22;8501;49.926;8.404;2022-11-25T18:11:54;8.60;99.90
16767;DHT22;8501;49.926;8.404;2022-11-25T18:16:53;8.60;99.90
16767;DHT22;8501;49.926;8.404;2022-11-25T18:19:19;8.60;99.90
16767;DHT22;8501;49.926;8.404;2022-11-25T18:21:45;8.70;99.90
16767;DHT22;8501;49.926;8.404;2022-11-25T18:24:11;8.70;99.90
16767;DHT22;8501;49.926;8.404;2022-11-25T18:26:44;8.60;99.90
16767;DHT22;8501;49.926;8.404;2022-11-25T18:29:17;8.70;99.90
16767;DHT22;8501;49.926;8.404;2022-11-25T18:31:46;8.70;99.90